PWSweather.com
Personal Weather Stations
Station Observations
KTXROWLE6
Ravens Nest, Rowlett, TX 75089

Ravens NestRowlett, TX 75089

Lat: 32.93105, Lon: -96.57368

Elevation: 556

Station Type: Davis Vantage Pro2 6152

http://rowlett.ws

High Low Average
Temperature 87.4°F30.8°C 68.5°F20.3°C 77.1°F25.1°C
Dew Point 70.6°F21.4°C 51.7°F10.9°C 57.8°F14.3°C
Winds 10.0 mph 16.1 kmh Calm Calm 2.0 mph E3.2 kmh E
Wind Gusts 15.0 mph24.1 kmh -- 6.0 mph9.7 kmh
Humidity 80% 30% 54%
Pressure 30.20 in1022.7 mb 30.09 in1019.0 mb -
Precipitation 0.00 in0.0 mm - -
Hour Temp Dew Point Humidity Winds Wind Gusts Pressure Precip Precip Rate Daily Precip Total
12:00 AM 79.7°F26.5°C 71.0°F21.7°C 75% 1.0 mph ENE1.6 kmh ENE 7.0 mph11.3 kmh 30.09 in1019.0 mb 0.00 in0.0 mm 0.00 in/hr0.0 mm/hr 0.00 in0.0 mm
12:05 AM 79.4°F26.3°C 70.7°F21.5°C 75% Calm Calm 9.0 mph14.5 kmh 30.09 in1019.0 mb 0.00 in0.0 mm 0.00 in/hr0.0 mm/hr 0.00 in0.0 mm
12:10 AM 79.2°F26.2°C 70.9°F21.6°C 76% Calm Calm 7.0 mph11.3 kmh 30.09 in1019.0 mb 0.00 in0.0 mm 0.00 in/hr0.0 mm/hr 0.00 in0.0 mm
12:15 AM 79.0°F26.1°C 70.7°F21.5°C 76% 3.0 mph E4.8 kmh E 6.0 mph9.7 kmh 30.09 in1019.0 mb 0.00 in0.0 mm 0.00 in/hr0.0 mm/hr 0.00 in0.0 mm
12:20 AM 78.9°F26.1°C 70.6°F21.4°C 76% 1.0 mph E1.6 kmh E 7.0 mph11.3 kmh 30.09 in1019.0 mb 0.00 in0.0 mm 0.00 in/hr0.0 mm/hr 0.00 in0.0 mm
12:25 AM 78.8°F26.0°C 70.5°F21.4°C 76% Calm Calm 7.0 mph11.3 kmh 30.09 in1019.0 mb 0.00 in0.0 mm 0.00 in/hr0.0 mm/hr 0.00 in0.0 mm
12:30 AM 78.6°F25.9°C 70.7°F21.5°C 77% 4.0 mph E6.4 kmh E 5.0 mph8.0 kmh 30.09 in1019.0 mb 0.00 in0.0 mm 0.00 in/hr0.0 mm/hr 0.00 in0.0 mm
12:35 AM 78.5°F25.8°C 70.6°F21.4°C 77% Calm Calm 9.0 mph14.5 kmh 30.09 in1019.0 mb 0.00 in0.0 mm 0.00 in/hr0.0 mm/hr 0.00 in0.0 mm
12:40 AM 78.4°F25.8°C 70.5°F21.4°C 77% Calm Calm 3.0 mph4.8 kmh 30.09 in1019.0 mb 0.00 in0.0 mm 0.00 in/hr0.0 mm/hr 0.00 in0.0 mm
12:45 AM 78.2°F25.7°C 70.7°F21.5°C 78% 1.0 mph E1.6 kmh E 5.0 mph8.0 kmh 30.09 in1019.0 mb 0.00 in0.0 mm 0.00 in/hr0.0 mm/hr 0.00 in0.0 mm
12:50 AM 78.1°F25.6°C 70.6°F21.4°C 78% Calm Calm 5.0 mph8.0 kmh 30.09 in1019.0 mb 0.00 in0.0 mm 0.00 in/hr0.0 mm/hr 0.00 in0.0 mm
12:55 AM 78.0°F25.6°C 70.5°F21.4°C 78% Calm Calm 3.0 mph4.8 kmh 30.09 in1019.0 mb 0.00 in0.0 mm 0.00 in/hr0.0 mm/hr 0.00 in0.0 mm
01:00 AM 77.9°F25.5°C 70.4°F21.3°C 78% Calm Calm 6.0 mph9.7 kmh 30.09 in1019.0 mb 0.00 in0.0 mm 0.00 in/hr0.0 mm/hr 0.00 in0.0 mm
01:05 AM 77.8°F25.4°C 70.3°F21.3°C 78% 1.0 mph E1.6 kmh E 3.0 mph4.8 kmh 30.09 in1019.0 mb 0.00 in0.0 mm 0.00 in/hr0.0 mm/hr 0.00 in0.0 mm
01:10 AM 77.7°F25.4°C 70.6°F21.4°C 79% Calm Calm 3.0 mph4.8 kmh 30.09 in1019.0 mb 0.00 in0.0 mm 0.00 in/hr0.0 mm/hr 0.00 in0.0 mm
01:15 AM 77.6°F25.3°C 70.5°F21.4°C 79% 1.0 mph E1.6 kmh E 6.0 mph9.7 kmh 30.09 in1019.0 mb 0.00 in0.0 mm 0.00 in/hr0.0 mm/hr 0.00 in0.0 mm
01:20 AM 77.6°F25.3°C 70.5°F21.4°C 79% Calm Calm 2.0 mph3.2 kmh 30.09 in1019.0 mb 0.00 in0.0 mm 0.00 in/hr0.0 mm/hr 0.00 in0.0 mm
01:25 AM 77.4°F25.2°C 70.3°F21.3°C 79% Calm Calm 2.0 mph3.2 kmh 30.09 in1019.0 mb 0.00 in0.0 mm 0.00 in/hr0.0 mm/hr 0.00 in0.0 mm
01:30 AM 77.3°F25.2°C 70.2°F21.2°C 79% Calm Calm 2.0 mph3.2 kmh 30.09 in1019.0 mb 0.00 in0.0 mm 0.00 in/hr0.0 mm/hr 0.00 in0.0 mm
01:35 AM 77.2°F25.1°C 70.5°F21.4°C 80% 2.0 mph E3.2 kmh E 2.0 mph3.2 kmh 30.09 in1019.0 mb 0.00 in0.0 mm 0.00 in/hr0.0 mm/hr 0.00 in0.0 mm
01:40 AM 77.1°F25.1°C 70.4°F21.3°C 80% 5.0 mph E8.0 kmh E 6.0 mph9.7 kmh 30.09 in1019.0 mb 0.00 in0.0 mm 0.00 in/hr0.0 mm/hr 0.00 in0.0 mm
01:45 AM 77.1°F25.1°C 70.4°F21.3°C 80% Calm Calm 5.0 mph8.0 kmh 30.10 in1019.3 mb 0.00 in0.0 mm 0.00 in/hr0.0 mm/hr 0.00 in0.0 mm
01:50 AM 77.0°F25.0°C 70.3°F21.3°C 80% Calm Calm 2.0 mph3.2 kmh 30.10 in1019.3 mb 0.00 in0.0 mm 0.00 in/hr0.0 mm/hr 0.00 in0.0 mm
01:55 AM 76.9°F24.9°C 70.2°F21.2°C 80% 1.0 mph E1.6 kmh E 3.0 mph4.8 kmh 30.10 in1019.3 mb 0.00 in0.0 mm 0.00 in/hr0.0 mm/hr 0.00 in0.0 mm
02:00 AM 76.8°F24.9°C 70.1°F21.2°C 80% Calm Calm 2.0 mph3.2 kmh 30.10 in1019.3 mb 0.00 in0.0 mm 0.00 in/hr0.0 mm/hr 0.00 in0.0 mm
02:05 AM 76.7°F24.8°C 70.0°F21.1°C 80% Calm Calm 3.0 mph4.8 kmh 30.10 in1019.3 mb 0.00 in0.0 mm 0.00 in/hr0.0 mm/hr 0.00 in0.0 mm
02:10 AM 76.7°F24.8°C 70.0°F21.1°C 80% Calm Calm 2.0 mph3.2 kmh 30.10 in1019.3 mb 0.00 in0.0 mm 0.00 in/hr0.0 mm/hr 0.00 in0.0 mm
02:15 AM 76.6°F24.8°C 69.9°F21.1°C 80% Calm Calm 2.0 mph3.2 kmh 30.10 in1019.3 mb 0.00 in0.0 mm 0.00 in/hr0.0 mm/hr 0.00 in0.0 mm
02:20 AM 76.5°F24.7°C 69.8°F21.0°C 80% Calm Calm 3.0 mph4.8 kmh 30.10 in1019.3 mb 0.00 in0.0 mm 0.00 in/hr0.0 mm/hr 0.00 in0.0 mm
02:25 AM 76.4°F24.7°C 69.7°F20.9°C 80% Calm Calm 2.0 mph3.2 kmh 30.10 in1019.3 mb 0.00 in0.0 mm 0.00 in/hr0.0 mm/hr 0.00 in0.0 mm
02:30 AM 76.2°F24.6°C 69.1°F20.6°C 79% Calm Calm 3.0 mph4.8 kmh 30.10 in1019.3 mb 0.00 in0.0 mm 0.00 in/hr0.0 mm/hr 0.00 in0.0 mm
02:35 AM 76.1°F24.5°C 69.0°F20.6°C 79% Calm Calm 2.0 mph3.2 kmh 30.10 in1019.3 mb 0.00 in0.0 mm 0.00 in/hr0.0 mm/hr 0.00 in0.0 mm
02:40 AM 76.0°F24.4°C 69.0°F20.6°C 79% 1.0 mph E1.6 kmh E 2.0 mph3.2 kmh 30.10 in1019.3 mb 0.00 in0.0 mm 0.00 in/hr0.0 mm/hr 0.00 in0.0 mm
02:45 AM 76.0°F24.4°C 69.0°F20.6°C 79% Calm Calm 1.0 mph1.6 kmh 30.10 in1019.3 mb 0.00 in0.0 mm 0.00 in/hr0.0 mm/hr 0.00 in0.0 mm
02:50 AM 75.8°F24.3°C 68.4°F20.2°C 78% Calm Calm 2.0 mph3.2 kmh 30.09 in1019.0 mb 0.00 in0.0 mm 0.00 in/hr0.0 mm/hr 0.00 in0.0 mm
02:55 AM 75.7°F24.3°C 68.3°F20.2°C 78% Calm Calm -- 30.09 in1019.0 mb 0.00 in0.0 mm 0.00 in/hr0.0 mm/hr 0.00 in0.0 mm
03:00 AM 75.6°F24.2°C 68.2°F20.1°C 78% Calm Calm 1.0 mph1.6 kmh 30.09 in1019.0 mb 0.00 in0.0 mm 0.00 in/hr0.0 mm/hr 0.00 in0.0 mm
03:05 AM 75.5°F24.2°C 68.1°F20.1°C 78% Calm Calm 1.0 mph1.6 kmh 30.09 in1019.0 mb 0.00 in0.0 mm 0.00 in/hr0.0 mm/hr 0.00 in0.0 mm
03:10 AM 75.3°F24.1°C 67.9°F19.9°C 78% Calm Calm 1.0 mph1.6 kmh 30.10 in1019.3 mb 0.00 in0.0 mm 0.00 in/hr0.0 mm/hr 0.00 in0.0 mm
03:15 AM 75.2°F24.0°C 67.4°F19.7°C 77% Calm Calm 2.0 mph3.2 kmh 30.10 in1019.3 mb 0.00 in0.0 mm 0.00 in/hr0.0 mm/hr 0.00 in0.0 mm
03:20 AM 75.1°F23.9°C 67.3°F19.6°C 77% Calm Calm 1.0 mph1.6 kmh 30.10 in1019.3 mb 0.00 in0.0 mm 0.00 in/hr0.0 mm/hr 0.00 in0.0 mm
03:25 AM 75.0°F23.9°C 67.2°F19.6°C 77% Calm Calm 1.0 mph1.6 kmh 30.10 in1019.3 mb 0.00 in0.0 mm 0.00 in/hr0.0 mm/hr 0.00 in0.0 mm
03:30 AM 74.9°F23.8°C 66.8°F19.3°C 76% Calm Calm 1.0 mph1.6 kmh 30.11 in1019.6 mb 0.00 in0.0 mm 0.00 in/hr0.0 mm/hr 0.00 in0.0 mm
03:35 AM 74.9°F23.8°C 66.8°F19.3°C 76% Calm Calm 1.0 mph1.6 kmh 30.11 in1019.6 mb 0.00 in0.0 mm 0.00 in/hr0.0 mm/hr 0.00 in0.0 mm
03:40 AM 74.8°F23.8°C 66.7°F19.3°C 76% Calm Calm 1.0 mph1.6 kmh 30.11 in1019.6 mb 0.00 in0.0 mm 0.00 in/hr0.0 mm/hr 0.00 in0.0 mm
03:45 AM 74.7°F23.7°C 66.6°F19.2°C 76% Calm Calm 1.0 mph1.6 kmh 30.11 in1019.6 mb 0.00 in0.0 mm 0.00 in/hr0.0 mm/hr 0.00 in0.0 mm
03:50 AM 74.7°F23.7°C 66.6°F19.2°C 76% Calm Calm 2.0 mph3.2 kmh 30.11 in1019.6 mb 0.00 in0.0 mm 0.00 in/hr0.0 mm/hr 0.00 in0.0 mm
03:55 AM 74.6°F23.7°C 66.5°F19.2°C 76% Calm Calm 3.0 mph4.8 kmh 30.11 in1019.6 mb 0.00 in0.0 mm 0.00 in/hr0.0 mm/hr 0.00 in0.0 mm
04:00 AM 74.4°F23.6°C 65.9°F18.8°C 75% Calm Calm 1.0 mph1.6 kmh 30.10 in1019.3 mb 0.00 in0.0 mm 0.00 in/hr0.0 mm/hr 0.00 in0.0 mm
04:05 AM 74.3°F23.5°C 65.8°F18.8°C 75% Calm Calm 3.0 mph4.8 kmh 30.11 in1019.6 mb 0.00 in0.0 mm 0.00 in/hr0.0 mm/hr 0.00 in0.0 mm
04:10 AM 74.2°F23.4°C 65.3°F18.5°C 74% 1.0 mph E1.6 kmh E 2.0 mph3.2 kmh 30.11 in1019.6 mb 0.00 in0.0 mm 0.00 in/hr0.0 mm/hr 0.00 in0.0 mm
04:15 AM 74.1°F23.4°C 64.4°F18.0°C 72% 2.0 mph E3.2 kmh E 6.0 mph9.7 kmh 30.11 in1019.6 mb 0.00 in0.0 mm 0.00 in/hr0.0 mm/hr 0.00 in0.0 mm
04:20 AM 74.2°F23.4°C 64.5°F18.1°C 72% 3.0 mph E4.8 kmh E 5.0 mph8.0 kmh 30.11 in1019.6 mb 0.00 in0.0 mm 0.00 in/hr0.0 mm/hr 0.00 in0.0 mm
04:25 AM 74.2°F23.4°C 64.5°F18.1°C 72% 1.0 mph ENE1.6 kmh ENE 3.0 mph4.8 kmh 30.11 in1019.6 mb 0.00 in0.0 mm 0.00 in/hr0.0 mm/hr 0.00 in0.0 mm
04:30 AM 74.2°F23.4°C 64.1°F17.8°C 71% Calm Calm 4.0 mph6.4 kmh 30.11 in1019.6 mb 0.00 in0.0 mm 0.00 in/hr0.0 mm/hr 0.00 in0.0 mm
04:35 AM 74.1°F23.4°C 64.0°F17.8°C 71% 2.0 mph E3.2 kmh E 5.0 mph8.0 kmh 30.11 in1019.6 mb 0.00 in0.0 mm 0.00 in/hr0.0 mm/hr 0.00 in0.0 mm
04:40 AM 74.1°F23.4°C 63.6°F17.6°C 70% 2.0 mph ENE3.2 kmh ENE 5.0 mph8.0 kmh 30.12 in1020.0 mb 0.00 in0.0 mm 0.00 in/hr0.0 mm/hr 0.00 in0.0 mm
04:45 AM 74.0°F23.3°C 63.5°F17.5°C 70% 1.0 mph ENE1.6 kmh ENE 3.0 mph4.8 kmh 30.12 in1020.0 mb 0.00 in0.0 mm 0.00 in/hr0.0 mm/hr 0.00 in0.0 mm
04:50 AM 73.9°F23.3°C 63.0°F17.2°C 69% Calm Calm 2.0 mph3.2 kmh 30.12 in1020.0 mb 0.00 in0.0 mm 0.00 in/hr0.0 mm/hr 0.00 in0.0 mm
04:55 AM 73.8°F23.2°C 62.5°F16.9°C 68% Calm Calm 3.0 mph4.8 kmh 30.12 in1020.0 mb 0.00 in0.0 mm 0.00 in/hr0.0 mm/hr 0.00 in0.0 mm
05:00 AM 73.7°F23.2°C 62.4°F16.9°C 68% 1.0 mph ENE1.6 kmh ENE 4.0 mph6.4 kmh 30.12 in1020.0 mb 0.00 in0.0 mm 0.00 in/hr0.0 mm/hr 0.00 in0.0 mm
05:05 AM 73.7°F23.2°C 62.0°F16.7°C 67% Calm Calm 3.0 mph4.8 kmh 30.12 in1020.0 mb 0.00 in0.0 mm 0.00 in/hr0.0 mm/hr 0.00 in0.0 mm
05:10 AM 73.7°F23.2°C 62.0°F16.7°C 67% 1.0 mph ENE1.6 kmh ENE 2.0 mph3.2 kmh 30.12 in1020.0 mb 0.00 in0.0 mm 0.00 in/hr0.0 mm/hr 0.00 in0.0 mm
05:15 AM 73.7°F23.2°C 61.6°F16.4°C 66% 3.0 mph ENE4.8 kmh ENE 3.0 mph4.8 kmh 30.12 in1020.0 mb 0.00 in0.0 mm 0.00 in/hr0.0 mm/hr 0.00 in0.0 mm
05:20 AM 73.6°F23.1°C 61.5°F16.4°C 66% Calm Calm 5.0 mph8.0 kmh 30.12 in1020.0 mb 0.00 in0.0 mm 0.00 in/hr0.0 mm/hr 0.00 in0.0 mm
05:25 AM 73.5°F23.1°C 61.4°F16.3°C 66% 2.0 mph E3.2 kmh E 5.0 mph8.0 kmh 30.12 in1020.0 mb 0.00 in0.0 mm 0.00 in/hr0.0 mm/hr 0.00 in0.0 mm
05:30 AM 73.4°F23.0°C 61.3°F16.3°C 66% 1.0 mph E1.6 kmh E 3.0 mph4.8 kmh 30.12 in1020.0 mb 0.00 in0.0 mm 0.00 in/hr0.0 mm/hr 0.00 in0.0 mm
05:35 AM 73.3°F22.9°C 60.8°F16.0°C 65% Calm Calm 2.0 mph3.2 kmh 30.12 in1020.0 mb 0.00 in0.0 mm 0.00 in/hr0.0 mm/hr 0.00 in0.0 mm
05:40 AM 73.1°F22.8°C 60.6°F15.9°C 65% 2.0 mph E3.2 kmh E 4.0 mph6.4 kmh 30.13 in1020.3 mb 0.00 in0.0 mm 0.00 in/hr0.0 mm/hr 0.00 in0.0 mm
05:45 AM 73.1°F22.8°C 60.6°F15.9°C 65% 1.0 mph E1.6 kmh E 4.0 mph6.4 kmh 30.13 in1020.3 mb 0.00 in0.0 mm 0.00 in/hr0.0 mm/hr 0.00 in0.0 mm
05:50 AM 73.0°F22.8°C 60.5°F15.8°C 65% Calm Calm 2.0 mph3.2 kmh 30.12 in1020.0 mb 0.00 in0.0 mm 0.00 in/hr0.0 mm/hr 0.00 in0.0 mm
05:55 AM 73.1°F22.8°C 60.6°F15.9°C 65% 2.0 mph E3.2 kmh E 4.0 mph6.4 kmh 30.12 in1020.0 mb 0.00 in0.0 mm 0.00 in/hr0.0 mm/hr 0.00 in0.0 mm
06:00 AM 73.2°F22.9°C 60.7°F15.9°C 65% Calm Calm 6.0 mph9.7 kmh 30.13 in1020.3 mb 0.00 in0.0 mm 0.00 in/hr0.0 mm/hr 0.00 in0.0 mm
06:05 AM 73.3°F22.9°C 60.8°F16.0°C 65% 2.0 mph E3.2 kmh E 3.0 mph4.8 kmh 30.13 in1020.3 mb 0.00 in0.0 mm 0.00 in/hr0.0 mm/hr 0.00 in0.0 mm
06:10 AM 73.3°F22.9°C 60.8°F16.0°C 65% Calm Calm 3.0 mph4.8 kmh 30.13 in1020.3 mb 0.00 in0.0 mm 0.00 in/hr0.0 mm/hr 0.00 in0.0 mm
06:15 AM 73.4°F23.0°C 60.4°F15.8°C 64% 2.0 mph E3.2 kmh E 6.0 mph9.7 kmh 30.14 in1020.7 mb 0.00 in0.0 mm 0.00 in/hr0.0 mm/hr 0.00 in0.0 mm
06:20 AM 73.5°F23.1°C 60.5°F15.8°C 64% 1.0 mph E1.6 kmh E 5.0 mph8.0 kmh 30.14 in1020.7 mb 0.00 in0.0 mm 0.00 in/hr0.0 mm/hr 0.00 in0.0 mm
06:25 AM 73.5°F23.1°C 60.5°F15.8°C 64% 1.0 mph E1.6 kmh E 3.0 mph4.8 kmh 30.14 in1020.7 mb 0.00 in0.0 mm 0.00 in/hr0.0 mm/hr 0.00 in0.0 mm
06:30 AM 73.5°F23.1°C 60.5°F15.8°C 64% 2.0 mph E3.2 kmh E 3.0 mph4.8 kmh 30.14 in1020.7 mb 0.00 in0.0 mm 0.00 in/hr0.0 mm/hr 0.00 in0.0 mm
06:35 AM 73.4°F23.0°C 60.4°F15.8°C 64% 4.0 mph E6.4 kmh E 4.0 mph6.4 kmh 30.14 in1020.7 mb 0.00 in0.0 mm 0.00 in/hr0.0 mm/hr 0.00 in0.0 mm
06:40 AM 73.4°F23.0°C 60.4°F15.8°C 64% 1.0 mph E1.6 kmh E 3.0 mph4.8 kmh 30.14 in1020.7 mb 0.00 in0.0 mm 0.00 in/hr0.0 mm/hr 0.00 in0.0 mm
06:45 AM 73.4°F23.0°C 60.0°F15.6°C 63% 3.0 mph E4.8 kmh E 4.0 mph6.4 kmh 30.14 in1020.7 mb 0.00 in0.0 mm 0.00 in/hr0.0 mm/hr 0.00 in0.0 mm
06:50 AM 73.4°F23.0°C 60.0°F15.6°C 63% 1.0 mph E1.6 kmh E 4.0 mph6.4 kmh 30.15 in1021.0 mb 0.00 in0.0 mm 0.00 in/hr0.0 mm/hr 0.00 in0.0 mm
06:55 AM 73.4°F23.0°C 60.0°F15.6°C 63% 1.0 mph E1.6 kmh E 9.0 mph14.5 kmh 30.15 in1021.0 mb 0.00 in0.0 mm 0.00 in/hr0.0 mm/hr 0.00 in0.0 mm
07:00 AM 73.3°F22.9°C 59.4°F15.2°C 62% 5.0 mph E8.0 kmh E 7.0 mph11.3 kmh 30.15 in1021.0 mb 0.00 in0.0 mm 0.00 in/hr0.0 mm/hr 0.00 in0.0 mm
07:05 AM 73.1°F22.8°C 59.2°F15.1°C 62% 1.0 mph ENE1.6 kmh ENE 7.0 mph11.3 kmh 30.15 in1021.0 mb 0.00 in0.0 mm 0.00 in/hr0.0 mm/hr 0.00 in0.0 mm
07:10 AM 73.0°F22.8°C 59.1°F15.1°C 62% 5.0 mph E8.0 kmh E 6.0 mph9.7 kmh 30.15 in1021.0 mb 0.00 in0.0 mm 0.00 in/hr0.0 mm/hr 0.00 in0.0 mm
07:15 AM 72.7°F22.6°C 59.3°F15.2°C 63% Calm Calm 7.0 mph11.3 kmh 30.15 in1021.0 mb 0.00 in0.0 mm 0.00 in/hr0.0 mm/hr 0.00 in0.0 mm
07:20 AM 72.6°F22.6°C 59.2°F15.1°C 63% Calm Calm 4.0 mph6.4 kmh 30.15 in1021.0 mb 0.00 in0.0 mm 0.00 in/hr0.0 mm/hr 0.00 in0.0 mm
07:25 AM 72.4°F22.4°C 59.0°F15.0°C 63% 7.0 mph E11.3 kmh E 7.0 mph11.3 kmh 30.16 in1021.3 mb 0.00 in0.0 mm 0.00 in/hr0.0 mm/hr 0.00 in0.0 mm
07:30 AM 72.3°F22.4°C 58.9°F14.9°C 63% 5.0 mph E8.0 kmh E 8.0 mph12.9 kmh 30.16 in1021.3 mb 0.00 in0.0 mm 0.00 in/hr0.0 mm/hr 0.00 in0.0 mm
07:35 AM 72.2°F22.3°C 58.8°F14.9°C 63% 1.0 mph ENE1.6 kmh ENE 9.0 mph14.5 kmh 30.16 in1021.3 mb 0.00 in0.0 mm 0.00 in/hr0.0 mm/hr 0.00 in0.0 mm
07:40 AM 72.2°F22.3°C 58.8°F14.9°C 63% 4.0 mph ENE6.4 kmh ENE 8.0 mph12.9 kmh 30.16 in1021.3 mb 0.00 in0.0 mm 0.00 in/hr0.0 mm/hr 0.00 in0.0 mm
07:45 AM 72.2°F22.3°C 58.8°F14.9°C 63% Calm Calm 6.0 mph9.7 kmh 30.16 in1021.3 mb 0.00 in0.0 mm 0.00 in/hr0.0 mm/hr 0.00 in0.0 mm
07:50 AM 72.3°F22.4°C 58.9°F14.9°C 63% 3.0 mph E4.8 kmh E 9.0 mph14.5 kmh 30.16 in1021.3 mb 0.00 in0.0 mm 0.00 in/hr0.0 mm/hr 0.00 in0.0 mm
07:55 AM 72.4°F22.4°C 59.0°F15.0°C 63% 3.0 mph E4.8 kmh E 7.0 mph11.3 kmh 30.16 in1021.3 mb 0.00 in0.0 mm 0.00 in/hr0.0 mm/hr 0.00 in0.0 mm
08:00 AM 72.2°F22.3°C 58.8°F14.9°C 63% 2.0 mph E3.2 kmh E 10.0 mph16.1 kmh 30.17 in1021.7 mb 0.00 in0.0 mm 0.00 in/hr0.0 mm/hr 0.00 in0.0 mm
08:05 AM 72.2°F22.3°C 58.8°F14.9°C 63% 1.0 mph E1.6 kmh E 6.0 mph9.7 kmh 30.17 in1021.7 mb 0.00 in0.0 mm 0.00 in/hr0.0 mm/hr 0.00 in0.0 mm
08:10 AM 72.2°F22.3°C 58.8°F14.9°C 63% 6.0 mph E9.7 kmh E 6.0 mph9.7 kmh 30.17 in1021.7 mb 0.00 in0.0 mm 0.00 in/hr0.0 mm/hr 0.00 in0.0 mm
08:15 AM 72.2°F22.3°C 58.8°F14.9°C 63% 2.0 mph E3.2 kmh E 8.0 mph12.9 kmh 30.17 in1021.7 mb 0.00 in0.0 mm 0.00 in/hr0.0 mm/hr 0.00 in0.0 mm
08:20 AM 72.5°F22.5°C 58.7°F14.8°C 62% 1.0 mph E1.6 kmh E 8.0 mph12.9 kmh 30.18 in1022.0 mb 0.00 in0.0 mm 0.00 in/hr0.0 mm/hr 0.00 in0.0 mm
08:25 AM 72.6°F22.6°C 58.8°F14.9°C 62% 5.0 mph E8.0 kmh E 8.0 mph12.9 kmh 30.18 in1022.0 mb 0.00 in0.0 mm 0.00 in/hr0.0 mm/hr 0.00 in0.0 mm
08:30 AM 72.6°F22.6°C 58.8°F14.9°C 62% 3.0 mph E4.8 kmh E 8.0 mph12.9 kmh 30.18 in1022.0 mb 0.00 in0.0 mm 0.00 in/hr0.0 mm/hr 0.00 in0.0 mm
08:35 AM 72.9°F22.7°C 59.1°F15.1°C 62% 3.0 mph E4.8 kmh E 9.0 mph14.5 kmh 30.18 in1022.0 mb 0.00 in0.0 mm 0.00 in/hr0.0 mm/hr 0.00 in0.0 mm
08:40 AM 72.9°F22.7°C 58.6°F14.8°C 61% 2.0 mph ENE3.2 kmh ENE 10.0 mph16.1 kmh 30.18 in1022.0 mb 0.00 in0.0 mm 0.00 in/hr0.0 mm/hr 0.00 in0.0 mm
08:45 AM 72.9°F22.7°C 58.6°F14.8°C 61% 2.0 mph E3.2 kmh E 8.0 mph12.9 kmh 30.18 in1022.0 mb 0.00 in0.0 mm 0.00 in/hr0.0 mm/hr 0.00 in0.0 mm
08:50 AM 73.1°F22.8°C 58.8°F14.9°C 61% 7.0 mph E11.3 kmh E 11.0 mph17.7 kmh 30.19 in1022.4 mb 0.00 in0.0 mm 0.00 in/hr0.0 mm/hr 0.00 in0.0 mm
08:55 AM 73.4°F23.0°C 58.6°F14.8°C 60% 8.0 mph ESE12.9 kmh ESE 11.0 mph17.7 kmh 30.19 in1022.4 mb 0.00 in0.0 mm 0.00 in/hr0.0 mm/hr 0.00 in0.0 mm
09:00 AM 73.8°F23.2°C 59.0°F15.0°C 60% 6.0 mph E9.7 kmh E 10.0 mph16.1 kmh 30.19 in1022.4 mb 0.00 in0.0 mm 0.00 in/hr0.0 mm/hr 0.00 in0.0 mm
09:05 AM 74.0°F23.3°C 58.7°F14.8°C 59% 7.0 mph E11.3 kmh E 13.0 mph20.9 kmh 30.19 in1022.4 mb 0.00 in0.0 mm 0.00 in/hr0.0 mm/hr 0.00 in0.0 mm
09:10 AM 74.2°F23.4°C 58.4°F14.7°C 58% 3.0 mph ESE4.8 kmh ESE 13.0 mph20.9 kmh 30.19 in1022.4 mb 0.00 in0.0 mm 0.00 in/hr0.0 mm/hr 0.00 in0.0 mm
09:15 AM 74.2°F23.4°C 57.9°F14.4°C 57% 9.0 mph E14.5 kmh E 11.0 mph17.7 kmh 30.19 in1022.4 mb 0.00 in0.0 mm 0.00 in/hr0.0 mm/hr 0.00 in0.0 mm
09:20 AM 74.3°F23.5°C 58.5°F14.7°C 58% 5.0 mph E8.0 kmh E 11.0 mph17.7 kmh 30.19 in1022.4 mb 0.00 in0.0 mm 0.00 in/hr0.0 mm/hr 0.00 in0.0 mm
09:25 AM 74.6°F23.7°C 57.8°F14.3°C 56% 5.0 mph E8.0 kmh E 14.0 mph22.5 kmh 30.19 in1022.4 mb 0.00 in0.0 mm 0.00 in/hr0.0 mm/hr 0.00 in0.0 mm
09:30 AM 74.9°F23.8°C 57.6°F14.2°C 55% 3.0 mph E4.8 kmh E 13.0 mph20.9 kmh 30.19 in1022.4 mb 0.00 in0.0 mm 0.00 in/hr0.0 mm/hr 0.00 in0.0 mm
09:35 AM 75.1°F23.9°C 57.8°F14.3°C 55% 1.0 mph E1.6 kmh E 10.0 mph16.1 kmh 30.19 in1022.4 mb 0.00 in0.0 mm 0.00 in/hr0.0 mm/hr 0.00 in0.0 mm
09:40 AM 75.4°F24.1°C 57.5°F14.2°C 54% 2.0 mph E3.2 kmh E 14.0 mph22.5 kmh 30.19 in1022.4 mb 0.00 in0.0 mm 0.00 in/hr0.0 mm/hr 0.00 in0.0 mm
09:45 AM 75.7°F24.3°C 57.3°F14.1°C 53% 5.0 mph E8.0 kmh E 12.0 mph19.3 kmh 30.19 in1022.4 mb 0.00 in0.0 mm 0.00 in/hr0.0 mm/hr 0.00 in0.0 mm
09:50 AM 76.1°F24.5°C 57.1°F13.9°C 52% 2.0 mph E3.2 kmh E 15.0 mph24.1 kmh 30.19 in1022.4 mb 0.00 in0.0 mm 0.00 in/hr0.0 mm/hr 0.00 in0.0 mm
09:55 AM 76.2°F24.6°C 56.7°F13.7°C 51% 10.0 mph ESE16.1 kmh ESE 15.0 mph24.1 kmh 30.19 in1022.4 mb 0.00 in0.0 mm 0.00 in/hr0.0 mm/hr 0.00 in0.0 mm
10:00 AM 76.0°F24.4°C 56.5°F13.6°C 51% 10.0 mph E16.1 kmh E 14.0 mph22.5 kmh 30.19 in1022.4 mb 0.00 in0.0 mm 0.00 in/hr0.0 mm/hr 0.00 in0.0 mm
10:05 AM 75.9°F24.4°C 56.4°F13.6°C 51% 8.0 mph ESE12.9 kmh ESE 15.0 mph24.1 kmh 30.19 in1022.4 mb 0.00 in0.0 mm 0.00 in/hr0.0 mm/hr 0.00 in0.0 mm
10:10 AM 76.2°F24.6°C 56.1°F13.4°C 50% 8.0 mph ESE12.9 kmh ESE 15.0 mph24.1 kmh 30.20 in1022.7 mb 0.00 in0.0 mm 0.00 in/hr0.0 mm/hr 0.00 in0.0 mm
10:15 AM 76.6°F24.8°C 56.5°F13.6°C 50% 6.0 mph E9.7 kmh E 11.0 mph17.7 kmh 30.20 in1022.7 mb 0.00 in0.0 mm 0.00 in/hr0.0 mm/hr 0.00 in0.0 mm
10:20 AM 76.7°F24.8°C 56.6°F13.7°C 50% 6.0 mph E9.7 kmh E 13.0 mph20.9 kmh 30.20 in1022.7 mb 0.00 in0.0 mm 0.00 in/hr0.0 mm/hr 0.00 in0.0 mm
10:25 AM 76.9°F24.9°C 56.2°F13.4°C 49% 5.0 mph ESE8.0 kmh ESE 13.0 mph20.9 kmh 30.19 in1022.4 mb 0.00 in0.0 mm 0.00 in/hr0.0 mm/hr 0.00 in0.0 mm
10:30 AM 77.1°F25.1°C 55.8°F13.2°C 48% 7.0 mph ESE11.3 kmh ESE 13.0 mph20.9 kmh 30.20 in1022.7 mb 0.00 in0.0 mm 0.00 in/hr0.0 mm/hr 0.00 in0.0 mm
10:35 AM 77.3°F25.2°C 56.6°F13.7°C 49% 5.0 mph E8.0 kmh E 9.0 mph14.5 kmh 30.19 in1022.4 mb 0.00 in0.0 mm 0.00 in/hr0.0 mm/hr 0.00 in0.0 mm
10:40 AM 77.4°F25.2°C 56.1°F13.4°C 48% 5.0 mph ESE8.0 kmh ESE 13.0 mph20.9 kmh 30.20 in1022.7 mb 0.00 in0.0 mm 0.00 in/hr0.0 mm/hr 0.00 in0.0 mm
10:45 AM 77.5°F25.3°C 56.8°F13.8°C 49% 5.0 mph ESE8.0 kmh ESE 11.0 mph17.7 kmh 30.20 in1022.7 mb 0.00 in0.0 mm 0.00 in/hr0.0 mm/hr 0.00 in0.0 mm
10:50 AM 77.8°F25.4°C 57.0°F13.9°C 49% 2.0 mph E3.2 kmh E 8.0 mph12.9 kmh 30.20 in1022.7 mb 0.00 in0.0 mm 0.00 in/hr0.0 mm/hr 0.00 in0.0 mm
10:55 AM 78.2°F25.7°C 56.2°F13.4°C 47% 7.0 mph E11.3 kmh E 11.0 mph17.7 kmh 30.20 in1022.7 mb 0.00 in0.0 mm 0.00 in/hr0.0 mm/hr 0.00 in0.0 mm
11:00 AM 78.3°F25.7°C 56.3°F13.5°C 47% 4.0 mph ESE6.4 kmh ESE 9.0 mph14.5 kmh 30.20 in1022.7 mb 0.00 in0.0 mm 0.00 in/hr0.0 mm/hr 0.00 in0.0 mm
11:05 AM 78.5°F25.8°C 56.5°F13.6°C 47% 5.0 mph E8.0 kmh E 10.0 mph16.1 kmh 30.20 in1022.7 mb 0.00 in0.0 mm 0.00 in/hr0.0 mm/hr 0.00 in0.0 mm
11:10 AM 78.5°F25.8°C 55.9°F13.3°C 46% 7.0 mph E11.3 kmh E 10.0 mph16.1 kmh 30.20 in1022.7 mb 0.00 in0.0 mm 0.00 in/hr0.0 mm/hr 0.00 in0.0 mm
11:15 AM 78.3°F25.7°C 56.3°F13.5°C 47% 4.0 mph ESE6.4 kmh ESE 12.0 mph19.3 kmh 30.20 in1022.7 mb 0.00 in0.0 mm 0.00 in/hr0.0 mm/hr 0.00 in0.0 mm
11:20 AM 78.2°F25.7°C 56.2°F13.4°C 47% 2.0 mph E3.2 kmh E 9.0 mph14.5 kmh 30.20 in1022.7 mb 0.00 in0.0 mm 0.00 in/hr0.0 mm/hr 0.00 in0.0 mm
11:25 AM 78.6°F25.9°C 56.6°F13.7°C 47% 8.0 mph E12.9 kmh E 10.0 mph16.1 kmh 30.20 in1022.7 mb 0.00 in0.0 mm 0.00 in/hr0.0 mm/hr 0.00 in0.0 mm
11:30 AM 78.6°F25.9°C 56.0°F13.3°C 46% 9.0 mph ESE14.5 kmh ESE 12.0 mph19.3 kmh 30.20 in1022.7 mb 0.00 in0.0 mm 0.00 in/hr0.0 mm/hr 0.00 in0.0 mm
11:35 AM 78.6°F25.9°C 56.6°F13.7°C 47% 6.0 mph SE9.7 kmh SE 12.0 mph19.3 kmh 30.20 in1022.7 mb 0.00 in0.0 mm 0.00 in/hr0.0 mm/hr 0.00 in0.0 mm
11:40 AM 78.8°F26.0°C 56.8°F13.8°C 47% 7.0 mph ESE11.3 kmh ESE 10.0 mph16.1 kmh 30.19 in1022.4 mb 0.00 in0.0 mm 0.00 in/hr0.0 mm/hr 0.00 in0.0 mm
11:45 AM 79.3°F26.3°C 56.0°F13.3°C 45% 7.0 mph ESE11.3 kmh ESE 11.0 mph17.7 kmh 30.19 in1022.4 mb 0.00 in0.0 mm 0.00 in/hr0.0 mm/hr 0.00 in0.0 mm
11:50 AM 79.4°F26.3°C 56.7°F13.7°C 46% 4.0 mph E6.4 kmh E 11.0 mph17.7 kmh 30.19 in1022.4 mb 0.00 in0.0 mm 0.00 in/hr0.0 mm/hr 0.00 in0.0 mm
11:55 AM 79.6°F26.4°C 56.9°F13.8°C 46% Calm Calm 6.0 mph9.7 kmh 30.19 in1022.4 mb 0.00 in0.0 mm 0.00 in/hr0.0 mm/hr 0.00 in0.0 mm
12:00 PM 80.1°F26.7°C 56.1°F13.4°C 44% 7.0 mph ESE11.3 kmh ESE 8.0 mph12.9 kmh 30.19 in1022.4 mb 0.00 in0.0 mm 0.00 in/hr0.0 mm/hr 0.00 in0.0 mm
12:05 PM 80.2°F26.8°C 56.2°F13.4°C 44% 6.0 mph E9.7 kmh E 9.0 mph14.5 kmh 30.19 in1022.4 mb 0.00 in0.0 mm 0.00 in/hr0.0 mm/hr 0.00 in0.0 mm
12:10 PM 80.3°F26.8°C 56.3°F13.5°C 44% 9.0 mph ESE14.5 kmh ESE 10.0 mph16.1 kmh 30.18 in1022.0 mb 0.00 in0.0 mm 0.00 in/hr0.0 mm/hr 0.00 in0.0 mm
12:15 PM 80.2°F26.8°C 56.2°F13.4°C 44% 1.0 mph E1.6 kmh E 9.0 mph14.5 kmh 30.18 in1022.0 mb 0.00 in0.0 mm 0.00 in/hr0.0 mm/hr 0.00 in0.0 mm
12:20 PM 80.6°F27.0°C 56.6°F13.7°C 44% 7.0 mph E11.3 kmh E 10.0 mph16.1 kmh 30.18 in1022.0 mb 0.00 in0.0 mm 0.00 in/hr0.0 mm/hr 0.00 in0.0 mm
12:25 PM 80.7°F27.1°C 56.0°F13.3°C 43% 2.0 mph E3.2 kmh E 10.0 mph16.1 kmh 30.18 in1022.0 mb 0.00 in0.0 mm 0.00 in/hr0.0 mm/hr 0.00 in0.0 mm
12:30 PM 80.7°F27.1°C 55.4°F13.0°C 42% 3.0 mph E4.8 kmh E 12.0 mph19.3 kmh 30.18 in1022.0 mb 0.00 in0.0 mm 0.00 in/hr0.0 mm/hr 0.00 in0.0 mm
12:35 PM 80.7°F27.1°C 55.4°F13.0°C 42% 3.0 mph E4.8 kmh E 10.0 mph16.1 kmh 30.17 in1021.7 mb 0.00 in0.0 mm 0.00 in/hr0.0 mm/hr 0.00 in0.0 mm
12:40 PM 81.0°F27.2°C 55.7°F13.2°C 42% 2.0 mph ESE3.2 kmh ESE 9.0 mph14.5 kmh 30.17 in1021.7 mb 0.00 in0.0 mm 0.00 in/hr0.0 mm/hr 0.00 in0.0 mm
12:45 PM 81.5°F27.5°C 55.4°F13.0°C 41% 8.0 mph ESE12.9 kmh ESE 10.0 mph16.1 kmh 30.17 in1021.7 mb 0.00 in0.0 mm 0.00 in/hr0.0 mm/hr 0.00 in0.0 mm
12:50 PM 81.5°F27.5°C 55.4°F13.0°C 41% 6.0 mph E9.7 kmh E 10.0 mph16.1 kmh 30.17 in1021.7 mb 0.00 in0.0 mm 0.00 in/hr0.0 mm/hr 0.00 in0.0 mm
12:55 PM 81.4°F27.4°C 55.4°F13.0°C 41% 5.0 mph E8.0 kmh E 10.0 mph16.1 kmh 30.17 in1021.7 mb 0.00 in0.0 mm 0.00 in/hr0.0 mm/hr 0.00 in0.0 mm
01:00 PM 81.6°F27.6°C 55.5°F13.1°C 41% 5.0 mph ESE8.0 kmh ESE 11.0 mph17.7 kmh 30.17 in1021.7 mb 0.00 in0.0 mm 0.00 in/hr0.0 mm/hr 0.00 in0.0 mm
01:05 PM 81.8°F27.7°C 56.4°F13.6°C 42% 3.0 mph ESE4.8 kmh ESE 9.0 mph14.5 kmh 30.17 in1021.7 mb 0.00 in0.0 mm 0.00 in/hr0.0 mm/hr 0.00 in0.0 mm
01:10 PM 82.1°F27.8°C 56.0°F13.3°C 41% Calm Calm 8.0 mph12.9 kmh 30.17 in1021.7 mb 0.00 in0.0 mm 0.00 in/hr0.0 mm/hr 0.00 in0.0 mm
01:15 PM 82.3°F27.9°C 55.5°F13.1°C 40% 3.0 mph E4.8 kmh E 10.0 mph16.1 kmh 30.17 in1021.7 mb 0.00 in0.0 mm 0.00 in/hr0.0 mm/hr 0.00 in0.0 mm
01:20 PM 82.2°F27.9°C 54.7°F12.6°C 39% 2.0 mph E3.2 kmh E 14.0 mph22.5 kmh 30.16 in1021.3 mb 0.00 in0.0 mm 0.00 in/hr0.0 mm/hr 0.00 in0.0 mm
01:25 PM 82.3°F27.9°C 55.5°F13.1°C 40% 5.0 mph ESE8.0 kmh ESE 11.0 mph17.7 kmh 30.16 in1021.3 mb 0.00 in0.0 mm 0.00 in/hr0.0 mm/hr 0.00 in0.0 mm
01:30 PM 83.1°F28.4°C 55.5°F13.1°C 39% 3.0 mph E4.8 kmh E 10.0 mph16.1 kmh 30.16 in1021.3 mb 0.00 in0.0 mm 0.00 in/hr0.0 mm/hr 0.00 in0.0 mm
01:35 PM 83.0°F28.3°C 55.4°F13.0°C 39% 4.0 mph ESE6.4 kmh ESE 8.0 mph12.9 kmh 30.16 in1021.3 mb 0.00 in0.0 mm 0.00 in/hr0.0 mm/hr 0.00 in0.0 mm
01:40 PM 82.7°F28.2°C 54.4°F12.4°C 38% 2.0 mph E3.2 kmh E 11.0 mph17.7 kmh 30.16 in1021.3 mb 0.00 in0.0 mm 0.00 in/hr0.0 mm/hr 0.00 in0.0 mm
01:45 PM 82.9°F28.3°C 54.6°F12.6°C 38% 3.0 mph E4.8 kmh E 10.0 mph16.1 kmh 30.16 in1021.3 mb 0.00 in0.0 mm 0.00 in/hr0.0 mm/hr 0.00 in0.0 mm
01:50 PM 83.0°F28.3°C 54.7°F12.6°C 38% 4.0 mph ESE6.4 kmh ESE 8.0 mph12.9 kmh 30.15 in1021.0 mb 0.00 in0.0 mm 0.00 in/hr0.0 mm/hr 0.00 in0.0 mm
01:55 PM 83.4°F28.6°C 55.8°F13.2°C 39% 1.0 mph ENE1.6 kmh ENE 7.0 mph11.3 kmh 30.15 in1021.0 mb 0.00 in0.0 mm 0.00 in/hr0.0 mm/hr 0.00 in0.0 mm
02:00 PM 83.8°F28.8°C 54.7°F12.6°C 37% 6.0 mph E9.7 kmh E 8.0 mph12.9 kmh 30.15 in1021.0 mb 0.00 in0.0 mm 0.00 in/hr0.0 mm/hr 0.00 in0.0 mm
02:05 PM 83.8°F28.8°C 55.4°F13.0°C 38% 4.0 mph ESE6.4 kmh ESE 12.0 mph19.3 kmh 30.15 in1021.0 mb 0.00 in0.0 mm 0.00 in/hr0.0 mm/hr 0.00 in0.0 mm
02:10 PM 83.6°F28.7°C 54.5°F12.5°C 37% 2.0 mph ESE3.2 kmh ESE 9.0 mph14.5 kmh 30.14 in1020.7 mb 0.00 in0.0 mm 0.00 in/hr0.0 mm/hr 0.00 in0.0 mm
02:15 PM 83.5°F28.6°C 54.4°F12.4°C 37% 3.0 mph NW4.8 kmh NW 9.0 mph14.5 kmh 30.14 in1020.7 mb 0.00 in0.0 mm 0.00 in/hr0.0 mm/hr 0.00 in0.0 mm
02:20 PM 84.1°F28.9°C 54.2°F12.3°C 36% 1.0 mph N1.6 kmh N 5.0 mph8.0 kmh 30.14 in1020.7 mb 0.00 in0.0 mm 0.00 in/hr0.0 mm/hr 0.00 in0.0 mm
02:25 PM 84.8°F29.3°C 55.5°F13.1°C 37% 5.0 mph NNW8.0 kmh NNW 7.0 mph11.3 kmh 30.14 in1020.7 mb 0.00 in0.0 mm 0.00 in/hr0.0 mm/hr 0.00 in0.0 mm
02:30 PM 85.1°F29.5°C 53.5°F11.9°C 34% 3.0 mph E4.8 kmh E 6.0 mph9.7 kmh 30.13 in1020.3 mb 0.00 in0.0 mm 0.00 in/hr0.0 mm/hr 0.00 in0.0 mm
02:35 PM 85.1°F29.5°C 54.3°F12.4°C 35% Calm Calm 7.0 mph11.3 kmh 30.13 in1020.3 mb 0.00 in0.0 mm 0.00 in/hr0.0 mm/hr 0.00 in0.0 mm
02:40 PM 85.3°F29.6°C 54.5°F12.5°C 35% Calm Calm 3.0 mph4.8 kmh 30.13 in1020.3 mb 0.00 in0.0 mm 0.00 in/hr0.0 mm/hr 0.00 in0.0 mm
02:45 PM 85.6°F29.8°C 53.9°F12.2°C 34% 2.0 mph NW3.2 kmh NW 7.0 mph11.3 kmh 30.13 in1020.3 mb 0.00 in0.0 mm 0.00 in/hr0.0 mm/hr 0.00 in0.0 mm
02:50 PM 85.7°F29.8°C 54.0°F12.2°C 34% Calm Calm 6.0 mph9.7 kmh 30.13 in1020.3 mb 0.00 in0.0 mm 0.00 in/hr0.0 mm/hr 0.00 in0.0 mm
02:55 PM 85.9°F29.9°C 54.2°F12.3°C 34% Calm Calm 5.0 mph8.0 kmh 30.13 in1020.3 mb 0.00 in0.0 mm 0.00 in/hr0.0 mm/hr 0.00 in0.0 mm
03:00 PM 86.3°F30.2°C 54.5°F12.5°C 34% 1.0 mph E1.6 kmh E 3.0 mph4.8 kmh 30.13 in1020.3 mb 0.00 in0.0 mm 0.00 in/hr0.0 mm/hr 0.00 in0.0 mm
03:05 PM 86.3°F30.2°C 54.5°F12.5°C 34% 1.0 mph E1.6 kmh E 8.0 mph12.9 kmh 30.13 in1020.3 mb 0.00 in0.0 mm 0.00 in/hr0.0 mm/hr 0.00 in0.0 mm
03:10 PM 86.0°F30.0°C 53.5°F11.9°C 33% Calm Calm 7.0 mph11.3 kmh 30.13 in1020.3 mb 0.00 in0.0 mm 0.00 in/hr0.0 mm/hr 0.00 in0.0 mm
03:15 PM 85.9°F29.9°C 53.4°F11.9°C 33% Calm Calm 6.0 mph9.7 kmh 30.13 in1020.3 mb 0.00 in0.0 mm 0.00 in/hr0.0 mm/hr 0.00 in0.0 mm
03:20 PM 86.1°F30.1°C 53.5°F11.9°C 33% Calm Calm 5.0 mph8.0 kmh 30.12 in1020.0 mb 0.00 in0.0 mm 0.00 in/hr0.0 mm/hr 0.00 in0.0 mm
03:25 PM 86.0°F30.0°C 51.8°F11.0°C 31% Calm Calm 8.0 mph12.9 kmh 30.12 in1020.0 mb 0.00 in0.0 mm 0.00 in/hr0.0 mm/hr 0.00 in0.0 mm
03:30 PM 85.9°F29.9°C 52.5°F11.4°C 32% 3.0 mph E4.8 kmh E 6.0 mph9.7 kmh 30.12 in1020.0 mb 0.00 in0.0 mm 0.00 in/hr0.0 mm/hr 0.00 in0.0 mm
03:35 PM 86.1°F30.1°C 51.8°F11.0°C 31% 2.0 mph E3.2 kmh E 5.0 mph8.0 kmh 30.12 in1020.0 mb 0.00 in0.0 mm 0.00 in/hr0.0 mm/hr 0.00 in0.0 mm
03:40 PM 86.2°F30.1°C 51.9°F11.1°C 31% 1.0 mph E1.6 kmh E 3.0 mph4.8 kmh 30.12 in1020.0 mb 0.00 in0.0 mm 0.00 in/hr0.0 mm/hr 0.00 in0.0 mm
03:45 PM 86.1°F30.1°C 51.8°F11.0°C 31% 3.0 mph E4.8 kmh E 8.0 mph12.9 kmh 30.11 in1019.6 mb 0.00 in0.0 mm 0.00 in/hr0.0 mm/hr 0.00 in0.0 mm
03:50 PM 86.0°F30.0°C 51.8°F11.0°C 31% Calm Calm 7.0 mph11.3 kmh 30.11 in1019.6 mb 0.00 in0.0 mm 0.00 in/hr0.0 mm/hr 0.00 in0.0 mm
03:55 PM 86.2°F30.1°C 53.6°F12.0°C 33% 3.0 mph ENE4.8 kmh ENE 3.0 mph4.8 kmh 30.11 in1019.6 mb 0.00 in0.0 mm 0.00 in/hr0.0 mm/hr 0.00 in0.0 mm
04:00 PM 86.5°F30.3°C 53.9°F12.2°C 33% 1.0 mph NNE1.6 kmh NNE 7.0 mph11.3 kmh 30.11 in1019.6 mb 0.00 in0.0 mm 0.00 in/hr0.0 mm/hr 0.00 in0.0 mm
04:05 PM 86.8°F30.4°C 52.4°F11.3°C 31% 1.0 mph NW1.6 kmh NW 7.0 mph11.3 kmh 30.10 in1019.3 mb 0.00 in0.0 mm 0.00 in/hr0.0 mm/hr 0.00 in0.0 mm
04:10 PM 86.8°F30.4°C 53.3°F11.8°C 32% 3.0 mph SE4.8 kmh SE 4.0 mph6.4 kmh 30.10 in1019.3 mb 0.00 in0.0 mm 0.00 in/hr0.0 mm/hr 0.00 in0.0 mm
04:15 PM 87.0°F30.6°C 52.6°F11.4°C 31% 2.0 mph E3.2 kmh E 6.0 mph9.7 kmh 30.10 in1019.3 mb 0.00 in0.0 mm 0.00 in/hr0.0 mm/hr 0.00 in0.0 mm
04:20 PM 87.0°F30.6°C 53.5°F11.9°C 32% 2.0 mph N3.2 kmh N 5.0 mph8.0 kmh 30.10 in1019.3 mb 0.00 in0.0 mm 0.00 in/hr0.0 mm/hr 0.00 in0.0 mm
04:25 PM 87.0°F30.6°C 53.5°F11.9°C 32% 1.0 mph E1.6 kmh E 3.0 mph4.8 kmh 30.10 in1019.3 mb 0.00 in0.0 mm 0.00 in/hr0.0 mm/hr 0.00 in0.0 mm
04:30 PM 87.1°F30.6°C 52.7°F11.5°C 31% Calm Calm 6.0 mph9.7 kmh 30.10 in1019.3 mb 0.00 in0.0 mm 0.00 in/hr0.0 mm/hr 0.00 in0.0 mm
04:35 PM 86.9°F30.5°C 53.4°F11.9°C 32% Calm Calm 8.0 mph12.9 kmh 30.10 in1019.3 mb 0.00 in0.0 mm 0.00 in/hr0.0 mm/hr 0.00 in0.0 mm
04:40 PM 87.0°F30.6°C 52.6°F11.4°C 31% Calm Calm 4.0 mph6.4 kmh 30.10 in1019.3 mb 0.00 in0.0 mm 0.00 in/hr0.0 mm/hr 0.00 in0.0 mm
04:45 PM 87.2°F30.7°C 53.7°F12.1°C 32% Calm Calm 3.0 mph4.8 kmh 30.10 in1019.3 mb 0.00 in0.0 mm 0.00 in/hr0.0 mm/hr 0.00 in0.0 mm
04:50 PM 87.4°F30.8°C 52.1°F11.2°C 30% 1.0 mph E1.6 kmh E 7.0 mph11.3 kmh 30.10 in1019.3 mb 0.00 in0.0 mm 0.00 in/hr0.0 mm/hr 0.00 in0.0 mm
04:55 PM 87.2°F30.7°C 51.9°F11.1°C 30% Calm Calm 3.0 mph4.8 kmh 30.10 in1019.3 mb 0.00 in0.0 mm 0.00 in/hr0.0 mm/hr 0.00 in0.0 mm
05:00 PM 87.0°F30.6°C 51.7°F10.9°C 30% Calm Calm 5.0 mph8.0 kmh 30.10 in1019.3 mb 0.00 in0.0 mm 0.00 in/hr0.0 mm/hr 0.00 in0.0 mm
05:05 PM 87.0°F30.6°C 52.6°F11.4°C 31% 1.0 mph E1.6 kmh E 6.0 mph9.7 kmh 30.10 in1019.3 mb 0.00 in0.0 mm 0.00 in/hr0.0 mm/hr 0.00 in0.0 mm
05:10 PM 86.5°F30.3°C 52.2°F11.2°C 31% Calm Calm 7.0 mph11.3 kmh 30.10 in1019.3 mb 0.00 in0.0 mm 0.00 in/hr0.0 mm/hr 0.00 in0.0 mm
05:15 PM 86.5°F30.3°C 53.1°F11.7°C 32% Calm Calm 3.0 mph4.8 kmh 30.10 in1019.3 mb 0.00 in0.0 mm 0.00 in/hr0.0 mm/hr 0.00 in0.0 mm
05:20 PM 86.7°F30.4°C 53.2°F11.8°C 32% Calm Calm 3.0 mph4.8 kmh 30.10 in1019.3 mb 0.00 in0.0 mm 0.00 in/hr0.0 mm/hr 0.00 in0.0 mm
05:25 PM 86.9°F30.5°C 52.5°F11.4°C 31% 1.0 mph NNE1.6 kmh NNE 6.0 mph9.7 kmh 30.10 in1019.3 mb 0.00 in0.0 mm 0.00 in/hr0.0 mm/hr 0.00 in0.0 mm
05:30 PM 86.7°F30.4°C 53.2°F11.8°C 32% 1.0 mph SW1.6 kmh SW 4.0 mph6.4 kmh 30.10 in1019.3 mb 0.00 in0.0 mm 0.00 in/hr0.0 mm/hr 0.00 in0.0 mm
05:35 PM 86.5°F30.3°C 52.2°F11.2°C 31% 2.0 mph SSE3.2 kmh SSE 7.0 mph11.3 kmh 30.10 in1019.3 mb 0.00 in0.0 mm 0.00 in/hr0.0 mm/hr 0.00 in0.0 mm
05:40 PM 86.5°F30.3°C 53.1°F11.7°C 32% 6.0 mph E9.7 kmh E 6.0 mph9.7 kmh 30.10 in1019.3 mb 0.00 in0.0 mm 0.00 in/hr0.0 mm/hr 0.00 in0.0 mm
05:45 PM 85.9°F29.9°C 52.5°F11.4°C 32% 3.0 mph E4.8 kmh E 7.0 mph11.3 kmh 30.09 in1019.0 mb 0.00 in0.0 mm 0.00 in/hr0.0 mm/hr 0.00 in0.0 mm
05:50 PM 85.6°F29.8°C 52.3°F11.3°C 32% 3.0 mph ENE4.8 kmh ENE 7.0 mph11.3 kmh 30.09 in1019.0 mb 0.00 in0.0 mm 0.00 in/hr0.0 mm/hr 0.00 in0.0 mm
05:55 PM 85.5°F29.7°C 53.0°F11.7°C 33% 1.0 mph ENE1.6 kmh ENE 7.0 mph11.3 kmh 30.09 in1019.0 mb 0.00 in0.0 mm 0.00 in/hr0.0 mm/hr 0.00 in0.0 mm
06:00 PM 85.4°F29.7°C 52.9°F11.6°C 33% 4.0 mph E6.4 kmh E 5.0 mph8.0 kmh 30.09 in1019.0 mb 0.00 in0.0 mm 0.00 in/hr0.0 mm/hr 0.00 in0.0 mm
06:05 PM 84.9°F29.4°C 52.5°F11.4°C 33% Calm Calm 7.0 mph11.3 kmh 30.09 in1019.0 mb 0.00 in0.0 mm 0.00 in/hr0.0 mm/hr 0.00 in0.0 mm
06:10 PM 84.6°F29.2°C 52.2°F11.2°C 33% 3.0 mph E4.8 kmh E 6.0 mph9.7 kmh 30.09 in1019.0 mb 0.00 in0.0 mm 0.00 in/hr0.0 mm/hr 0.00 in0.0 mm
06:15 PM 84.0°F28.9°C 52.5°F11.4°C 34% 1.0 mph E1.6 kmh E 6.0 mph9.7 kmh 30.09 in1019.0 mb 0.00 in0.0 mm 0.00 in/hr0.0 mm/hr 0.00 in0.0 mm
06:20 PM 83.9°F28.8°C 53.2°F11.8°C 35% 2.0 mph ENE3.2 kmh ENE 7.0 mph11.3 kmh 30.09 in1019.0 mb 0.00 in0.0 mm 0.00 in/hr0.0 mm/hr 0.00 in0.0 mm
06:25 PM 83.6°F28.7°C 53.0°F11.7°C 35% Calm Calm 7.0 mph11.3 kmh 30.09 in1019.0 mb 0.00 in0.0 mm 0.00 in/hr0.0 mm/hr 0.00 in0.0 mm
06:30 PM 83.7°F28.7°C 53.1°F11.7°C 35% 2.0 mph ENE3.2 kmh ENE 4.0 mph6.4 kmh 30.10 in1019.3 mb 0.00 in0.0 mm 0.00 in/hr0.0 mm/hr 0.00 in0.0 mm
06:35 PM 83.4°F28.6°C 52.8°F11.6°C 35% 2.0 mph E3.2 kmh E 5.0 mph8.0 kmh 30.10 in1019.3 mb 0.00 in0.0 mm 0.00 in/hr0.0 mm/hr 0.00 in0.0 mm
06:40 PM 83.0°F28.3°C 53.2°F11.8°C 36% 2.0 mph E3.2 kmh E 5.0 mph8.0 kmh 30.10 in1019.3 mb 0.00 in0.0 mm 0.00 in/hr0.0 mm/hr 0.00 in0.0 mm
06:45 PM 82.6°F28.1°C 52.9°F11.6°C 36% 1.0 mph ENE1.6 kmh ENE 7.0 mph11.3 kmh 30.10 in1019.3 mb 0.00 in0.0 mm 0.00 in/hr0.0 mm/hr 0.00 in0.0 mm
06:50 PM 82.3°F27.9°C 52.6°F11.4°C 36% 1.0 mph ENE1.6 kmh ENE 7.0 mph11.3 kmh 30.10 in1019.3 mb 0.00 in0.0 mm 0.00 in/hr0.0 mm/hr 0.00 in0.0 mm
06:55 PM 81.9°F27.7°C 53.0°F11.7°C 37% 1.0 mph E1.6 kmh E 9.0 mph14.5 kmh 30.10 in1019.3 mb 0.00 in0.0 mm 0.00 in/hr0.0 mm/hr 0.00 in0.0 mm
07:00 PM 81.4°F27.4°C 52.5°F11.4°C 37% 5.0 mph E8.0 kmh E 6.0 mph9.7 kmh 30.10 in1019.3 mb 0.00 in0.0 mm 0.00 in/hr0.0 mm/hr 0.00 in0.0 mm
07:05 PM 80.8°F27.1°C 52.7°F11.5°C 38% Calm Calm 5.0 mph8.0 kmh 30.10 in1019.3 mb 0.00 in0.0 mm 0.00 in/hr0.0 mm/hr 0.00 in0.0 mm
07:10 PM 80.3°F26.8°C 53.0°F11.7°C 39% 1.0 mph E1.6 kmh E 3.0 mph4.8 kmh 30.10 in1019.3 mb 0.00 in0.0 mm 0.00 in/hr0.0 mm/hr 0.00 in0.0 mm
07:15 PM 79.7°F26.5°C 53.2°F11.8°C 40% 2.0 mph E3.2 kmh E 5.0 mph8.0 kmh 30.10 in1019.3 mb 0.00 in0.0 mm 0.00 in/hr0.0 mm/hr 0.00 in0.0 mm
07:20 PM 79.3°F26.3°C 52.8°F11.6°C 40% 1.0 mph E1.6 kmh E 5.0 mph8.0 kmh 30.10 in1019.3 mb 0.00 in0.0 mm 0.00 in/hr0.0 mm/hr 0.00 in0.0 mm
07:25 PM 78.9°F26.1°C 53.1°F11.7°C 41% 5.0 mph E8.0 kmh E 5.0 mph8.0 kmh 30.10 in1019.3 mb 0.00 in0.0 mm 0.00 in/hr0.0 mm/hr 0.00 in0.0 mm
07:30 PM 78.5°F25.8°C 53.4°F11.9°C 42% Calm Calm 5.0 mph8.0 kmh 30.10 in1019.3 mb 0.00 in0.0 mm 0.00 in/hr0.0 mm/hr 0.00 in0.0 mm
07:35 PM 78.2°F25.7°C 53.2°F11.8°C 42% Calm Calm 3.0 mph4.8 kmh 30.10 in1019.3 mb 0.00 in0.0 mm 0.00 in/hr0.0 mm/hr 0.00 in0.0 mm
07:40 PM 77.8°F25.4°C 53.4°F11.9°C 43% Calm Calm 1.0 mph1.6 kmh 30.11 in1019.6 mb 0.00 in0.0 mm 0.00 in/hr0.0 mm/hr 0.00 in0.0 mm
07:45 PM 77.5°F25.3°C 53.8°F12.1°C 44% Calm Calm 1.0 mph1.6 kmh 30.11 in1019.6 mb 0.00 in0.0 mm 0.00 in/hr0.0 mm/hr 0.00 in0.0 mm
07:50 PM 77.0°F25.0°C 54.0°F12.2°C 45% Calm Calm 2.0 mph3.2 kmh 30.11 in1019.6 mb 0.00 in0.0 mm 0.00 in/hr0.0 mm/hr 0.00 in0.0 mm
07:55 PM 76.7°F24.8°C 54.3°F12.4°C 46% 2.0 mph E3.2 kmh E 3.0 mph4.8 kmh 30.11 in1019.6 mb 0.00 in0.0 mm 0.00 in/hr0.0 mm/hr 0.00 in0.0 mm
08:00 PM 76.4°F24.7°C 54.6°F12.6°C 47% 1.0 mph E1.6 kmh E 5.0 mph8.0 kmh 30.11 in1019.6 mb 0.00 in0.0 mm 0.00 in/hr0.0 mm/hr 0.00 in0.0 mm
08:05 PM 76.1°F24.5°C 54.3°F12.4°C 47% Calm Calm 5.0 mph8.0 kmh 30.11 in1019.6 mb 0.00 in0.0 mm 0.00 in/hr0.0 mm/hr 0.00 in0.0 mm
08:10 PM 75.9°F24.4°C 54.7°F12.6°C 48% Calm Calm 3.0 mph4.8 kmh 30.11 in1019.6 mb 0.00 in0.0 mm 0.00 in/hr0.0 mm/hr 0.00 in0.0 mm
08:15 PM 75.6°F24.2°C 55.0°F12.8°C 49% 1.0 mph E1.6 kmh E 3.0 mph4.8 kmh 30.12 in1020.0 mb 0.00 in0.0 mm 0.00 in/hr0.0 mm/hr 0.00 in0.0 mm
08:20 PM 75.3°F24.1°C 54.7°F12.6°C 49% Calm Calm 6.0 mph9.7 kmh 30.12 in1020.0 mb 0.00 in0.0 mm 0.00 in/hr0.0 mm/hr 0.00 in0.0 mm
08:25 PM 75.1°F23.9°C 55.1°F12.8°C 50% Calm Calm 5.0 mph8.0 kmh 30.12 in1020.0 mb 0.00 in0.0 mm 0.00 in/hr0.0 mm/hr 0.00 in0.0 mm
08:30 PM 74.9°F23.8°C 54.9°F12.7°C 50% Calm Calm 3.0 mph4.8 kmh 30.12 in1020.0 mb 0.00 in0.0 mm 0.00 in/hr0.0 mm/hr 0.00 in0.0 mm
08:35 PM 74.8°F23.8°C 54.8°F12.7°C 50% Calm Calm 2.0 mph3.2 kmh 30.12 in1020.0 mb 0.00 in0.0 mm 0.00 in/hr0.0 mm/hr 0.00 in0.0 mm
08:40 PM 74.5°F23.6°C 55.1°F12.8°C 51% Calm Calm 2.0 mph3.2 kmh 30.12 in1020.0 mb 0.00 in0.0 mm 0.00 in/hr0.0 mm/hr 0.00 in0.0 mm
08:45 PM 74.3°F23.5°C 54.9°F12.7°C 51% 1.0 mph E1.6 kmh E 2.0 mph3.2 kmh 30.13 in1020.3 mb 0.00 in0.0 mm 0.00 in/hr0.0 mm/hr 0.00 in0.0 mm
08:50 PM 74.0°F23.3°C 54.7°F12.6°C 51% Calm Calm 2.0 mph3.2 kmh 30.13 in1020.3 mb 0.00 in0.0 mm 0.00 in/hr0.0 mm/hr 0.00 in0.0 mm
08:55 PM 73.8°F23.2°C 55.0°F12.8°C 52% Calm Calm 3.0 mph4.8 kmh 30.13 in1020.3 mb 0.00 in0.0 mm 0.00 in/hr0.0 mm/hr 0.00 in0.0 mm
09:00 PM 73.6°F23.1°C 54.8°F12.7°C 52% 1.0 mph E1.6 kmh E 3.0 mph4.8 kmh 30.13 in1020.3 mb 0.00 in0.0 mm 0.00 in/hr0.0 mm/hr 0.00 in0.0 mm
09:05 PM 73.4°F23.0°C 55.2°F12.9°C 53% Calm Calm 2.0 mph3.2 kmh 30.13 in1020.3 mb 0.00 in0.0 mm 0.00 in/hr0.0 mm/hr 0.00 in0.0 mm
09:10 PM 73.2°F22.9°C 55.0°F12.8°C 53% Calm Calm 2.0 mph3.2 kmh 30.14 in1020.7 mb 0.00 in0.0 mm 0.00 in/hr0.0 mm/hr 0.00 in0.0 mm
09:15 PM 73.0°F22.8°C 55.3°F12.9°C 54% Calm Calm 2.0 mph3.2 kmh 30.14 in1020.7 mb 0.00 in0.0 mm 0.00 in/hr0.0 mm/hr 0.00 in0.0 mm
09:20 PM 72.8°F22.7°C 55.1°F12.8°C 54% Calm Calm 3.0 mph4.8 kmh 30.14 in1020.7 mb 0.00 in0.0 mm 0.00 in/hr0.0 mm/hr 0.00 in0.0 mm
09:25 PM 72.6°F22.6°C 54.9°F12.7°C 54% Calm Calm 1.0 mph1.6 kmh 30.14 in1020.7 mb 0.00 in0.0 mm 0.00 in/hr0.0 mm/hr 0.00 in0.0 mm
09:30 PM 72.4°F22.4°C 55.3°F12.9°C 55% Calm Calm 1.0 mph1.6 kmh 30.15 in1021.0 mb 0.00 in0.0 mm 0.00 in/hr0.0 mm/hr 0.00 in0.0 mm
09:35 PM 72.2°F22.3°C 55.1°F12.8°C 55% Calm Calm 2.0 mph3.2 kmh 30.15 in1021.0 mb 0.00 in0.0 mm 0.00 in/hr0.0 mm/hr 0.00 in0.0 mm
09:40 PM 72.0°F22.2°C 55.4°F13.0°C 56% Calm Calm -- 30.15 in1021.0 mb 0.00 in0.0 mm 0.00 in/hr0.0 mm/hr 0.00 in0.0 mm
09:45 PM 71.7°F22.1°C 55.1°F12.8°C 56% Calm Calm -- 30.14 in1020.7 mb 0.00 in0.0 mm 0.00 in/hr0.0 mm/hr 0.00 in0.0 mm
09:50 PM 71.5°F21.9°C 54.9°F12.7°C 56% Calm Calm 1.0 mph1.6 kmh 30.14 in1020.7 mb 0.00 in0.0 mm 0.00 in/hr0.0 mm/hr 0.00 in0.0 mm
09:55 PM 71.3°F21.8°C 55.2°F12.9°C 57% Calm Calm 1.0 mph1.6 kmh 30.15 in1021.0 mb 0.00 in0.0 mm 0.00 in/hr0.0 mm/hr 0.00 in0.0 mm
10:00 PM 71.1°F21.7°C 55.0°F12.8°C 57% Calm Calm 2.0 mph3.2 kmh 30.15 in1021.0 mb 0.00 in0.0 mm 0.00 in/hr0.0 mm/hr 0.00 in0.0 mm
10:05 PM 70.8°F21.6°C 54.7°F12.6°C 57% Calm Calm 3.0 mph4.8 kmh 30.15 in1021.0 mb 0.00 in0.0 mm 0.00 in/hr0.0 mm/hr 0.00 in0.0 mm
10:10 PM 70.6°F21.4°C 55.0°F12.8°C 58% Calm Calm 1.0 mph1.6 kmh 30.15 in1021.0 mb 0.00 in0.0 mm 0.00 in/hr0.0 mm/hr 0.00 in0.0 mm
10:15 PM 70.4°F21.3°C 54.9°F12.7°C 58% 2.0 mph E3.2 kmh E 1.0 mph1.6 kmh 30.15 in1021.0 mb 0.00 in0.0 mm 0.00 in/hr0.0 mm/hr 0.00 in0.0 mm
10:20 PM 70.3°F21.3°C 55.2°F12.9°C 59% 2.0 mph E3.2 kmh E 3.0 mph4.8 kmh 30.15 in1021.0 mb 0.00 in0.0 mm 0.00 in/hr0.0 mm/hr 0.00 in0.0 mm
10:25 PM 70.1°F21.2°C 55.0°F12.8°C 59% 1.0 mph E1.6 kmh E 3.0 mph4.8 kmh 30.15 in1021.0 mb 0.00 in0.0 mm 0.00 in/hr0.0 mm/hr 0.00 in0.0 mm
10:30 PM 69.9°F21.1°C 54.9°F12.7°C 59% 1.0 mph E1.6 kmh E 5.0 mph8.0 kmh 30.15 in1021.0 mb 0.00 in0.0 mm 0.00 in/hr0.0 mm/hr 0.00 in0.0 mm
10:35 PM 69.9°F21.1°C 55.3°F12.9°C 60% 1.0 mph E1.6 kmh E 3.0 mph4.8 kmh 30.15 in1021.0 mb 0.00 in0.0 mm 0.00 in/hr0.0 mm/hr 0.00 in0.0 mm
10:40 PM 69.8°F21.0°C 55.2°F12.9°C 60% Calm Calm 3.0 mph4.8 kmh 30.15 in1021.0 mb 0.00 in0.0 mm 0.00 in/hr0.0 mm/hr 0.00 in0.0 mm
10:45 PM 69.7°F20.9°C 55.1°F12.8°C 60% 1.0 mph E1.6 kmh E 3.0 mph4.8 kmh 30.15 in1021.0 mb 0.00 in0.0 mm 0.00 in/hr0.0 mm/hr 0.00 in0.0 mm
10:50 PM 69.5°F20.8°C 54.9°F12.7°C 60% 1.0 mph E1.6 kmh E 2.0 mph3.2 kmh 30.15 in1021.0 mb 0.00 in0.0 mm 0.00 in/hr0.0 mm/hr 0.00 in0.0 mm
10:55 PM 69.3°F20.7°C 55.2°F12.9°C 61% Calm Calm 3.0 mph4.8 kmh 30.15 in1021.0 mb 0.00 in0.0 mm 0.00 in/hr0.0 mm/hr 0.00 in0.0 mm
11:00 PM 69.3°F20.7°C 55.2°F12.9°C 61% 2.0 mph E3.2 kmh E 3.0 mph4.8 kmh 30.15 in1021.0 mb 0.00 in0.0 mm 0.00 in/hr0.0 mm/hr 0.00 in0.0 mm
11:05 PM 69.3°F20.7°C 55.2°F12.9°C 61% Calm Calm 3.0 mph4.8 kmh 30.15 in1021.0 mb 0.00 in0.0 mm 0.00 in/hr0.0 mm/hr 0.00 in0.0 mm
11:10 PM 69.2°F20.7°C 55.1°F12.8°C 61% Calm Calm 1.0 mph1.6 kmh 30.15 in1021.0 mb 0.00 in0.0 mm 0.00 in/hr0.0 mm/hr 0.00 in0.0 mm
11:15 PM 69.1°F20.6°C 55.5°F13.1°C 62% 1.0 mph E1.6 kmh E 2.0 mph3.2 kmh 30.15 in1021.0 mb 0.00 in0.0 mm 0.00 in/hr0.0 mm/hr 0.00 in0.0 mm
11:20 PM 69.0°F20.6°C 55.4°F13.0°C 62% 1.0 mph E1.6 kmh E 2.0 mph3.2 kmh 30.15 in1021.0 mb 0.00 in0.0 mm 0.00 in/hr0.0 mm/hr 0.00 in0.0 mm
11:25 PM 69.0°F20.6°C 55.4°F13.0°C 62% Calm Calm 5.0 mph8.0 kmh 30.14 in1020.7 mb 0.00 in0.0 mm 0.00 in/hr0.0 mm/hr 0.00 in0.0 mm
11:30 PM 69.0°F20.6°C 55.4°F13.0°C 62% Calm Calm 1.0 mph1.6 kmh 30.15 in1021.0 mb 0.00 in0.0 mm 0.00 in/hr0.0 mm/hr 0.00 in0.0 mm
11:35 PM 69.0°F20.6°C 55.4°F13.0°C 62% 2.0 mph E3.2 kmh E 3.0 mph4.8 kmh 30.15 in1021.0 mb 0.00 in0.0 mm 0.00 in/hr0.0 mm/hr 0.00 in0.0 mm
11:40 PM 69.2°F20.7°C 55.6°F13.1°C 62% Calm Calm 2.0 mph3.2 kmh 30.14 in1020.7 mb 0.00 in0.0 mm 0.00 in/hr0.0 mm/hr 0.00 in0.0 mm
11:45 PM 69.2°F20.7°C 56.0°F13.3°C 63% 1.0 mph E1.6 kmh E 3.0 mph4.8 kmh 30.14 in1020.7 mb 0.00 in0.0 mm 0.00 in/hr0.0 mm/hr 0.00 in0.0 mm
11:50 PM 69.2°F20.7°C 56.0°F13.3°C 63% Calm Calm 5.0 mph8.0 kmh 30.14 in1020.7 mb 0.00 in0.0 mm 0.00 in/hr0.0 mm/hr 0.00 in0.0 mm
11:55 PM 69.2°F20.7°C 56.0°F13.3°C 63% 2.0 mph E3.2 kmh E 2.0 mph3.2 kmh 30.14 in1020.7 mb 0.00 in0.0 mm 0.00 in/hr0.0 mm/hr 0.00 in0.0 mm